Brewster, New York
Current Conditions -  °F | °C
As of 4:26 PM on Wednesday 26 Nov 2014 (Local Time) from KDXR Reporting Station
Light Rain Light Rain  
Wind Chill: 27°   Ceiling: 700
Heat Index: 34°   Visibility: 3mi
Dew Point: 30°   Wind: 8mph
Humidity: 85%   Direction: 20°NNE
Pressure: 29.84"   Gusts: NA
Location:  41.4°N, 73.62°W
Report Text: KDXR 262126Z 02007KT 3SM -RA BR BKN007 OVC013 01/M01 A2984 RMK AO2 RAE2058B26SNB2058E26 P0003 T00111011
Loading
Personal Weather Stations






























Interactive Weather Map New forecast layout! Learn more

10-Day Weather Forecast

Advertisements
Track Severe Weather on mobile